createdAt,value
2023-01-30T00:01:49.856Z,-0.70
2023-01-30T00:04:17.648Z,-0.80
2023-01-30T00:06:45.675Z,-0.90
2023-01-30T00:09:14.926Z,-0.90
2023-01-30T00:11:44.086Z,-0.80
2023-01-30T00:14:11.846Z,-0.80
2023-01-30T00:16:39.615Z,-0.80
2023-01-30T00:19:07.470Z,-0.90
2023-01-30T00:21:35.401Z,-0.90
2023-01-30T00:24:03.425Z,-0.90
2023-01-30T00:26:31.318Z,-0.90
2023-01-30T00:29:00.552Z,-0.80
2023-01-30T00:31:28.327Z,-0.80
2023-01-30T00:33:56.114Z,-0.80
2023-01-30T00:36:23.886Z,-0.90
2023-01-30T00:38:51.720Z,-0.90
2023-01-30T00:41:19.529Z,-0.90
2023-01-30T00:44:04.942Z,-0.90
2023-01-30T00:46:53.620Z,-0.80
2023-01-30T00:49:21.469Z,-0.90
2023-01-30T00:51:49.447Z,-0.90
2023-01-30T00:54:17.347Z,-0.90
2023-01-30T00:56:45.161Z,-1.00
2023-01-30T00:59:12.956Z,-0.90
2023-01-30T01:01:42.272Z,-1.00
2023-01-30T01:04:11.784Z,-1.00
2023-01-30T01:06:39.573Z,-1.00
2023-01-30T01:09:08.153Z,-1.10
2023-01-30T01:11:36.845Z,-1.10
2023-01-30T01:14:06.367Z,-1.10
2023-01-30T01:16:35.594Z,-1.10
2023-01-30T01:19:05.367Z,-1.10
2023-01-30T01:21:33.202Z,-1.10
2023-01-30T01:24:01.538Z,-1.20
2023-01-30T01:26:29.555Z,-1.20
2023-01-30T01:28:58.080Z,-1.20
2023-01-30T01:31:26.387Z,-1.20
2023-01-30T01:33:54.325Z,-1.20
2023-01-30T01:36:51.524Z,-1.20
2023-01-30T01:39:11.297Z,-1.20
2023-01-30T01:41:38.208Z,-1.20
2023-01-30T01:44:07.882Z,-1.20
2023-01-30T01:46:39.698Z,-1.20
2023-01-30T01:49:14.877Z,-1.30
2023-01-30T01:51:49.756Z,-1.30
2023-01-30T01:54:22.937Z,-1.30
2023-01-30T01:56:51.328Z,-1.30
2023-01-30T01:59:24.575Z,-1.30
2023-01-30T02:01:56.191Z,-1.30
2023-01-30T02:04:38.619Z,-1.30
2023-01-30T02:07:08.425Z,-1.30
2023-01-30T02:09:36.547Z,-1.30
2023-01-30T02:12:05.272Z,-1.30
2023-01-30T02:14:35.079Z,-1.30
2023-01-30T02:17:02.877Z,-1.30
2023-01-30T02:19:40.121Z,-1.30
2023-01-30T02:22:30.938Z,-1.30
2023-01-30T02:25:30.231Z,-1.40
2023-01-30T02:28:33.515Z,-1.40
2023-01-30T02:31:28.087Z,-1.40
2023-01-30T02:34:12.364Z,-1.40
2023-01-30T02:36:49.114Z,-1.40
2023-01-30T02:39:27.766Z,-1.40
2023-01-30T02:42:01.767Z,-1.30
2023-01-30T02:44:38.573Z,-1.40
2023-01-30T02:47:12.274Z,-1.40
2023-01-30T02:49:43.265Z,-1.30
2023-01-30T02:52:13.750Z,-1.40
2023-01-30T02:54:41.684Z,-1.40
2023-01-30T02:57:20.344Z,-1.40
2023-01-30T02:59:51.258Z,-1.40
2023-01-30T03:02:38.522Z,-1.40
2023-01-30T03:05:22.777Z,-1.30
2023-01-30T03:07:56.552Z,-1.30
2023-01-30T03:10:35.649Z,-1.40
2023-01-30T03:13:10.984Z,-1.30
2023-01-30T03:15:44.030Z,-1.30
2023-01-30T03:18:13.352Z,-1.30
2023-01-30T03:20:42.289Z,-1.30
2023-01-30T03:23:10.514Z,-1.40
2023-01-30T03:25:40.384Z,-1.30
2023-01-30T03:28:09.757Z,-1.30
2023-01-30T03:30:37.792Z,-1.40
2023-01-30T03:33:05.651Z,-1.30
2023-01-30T03:35:35.221Z,-1.40
2023-01-30T03:38:03.497Z,-1.40
2023-01-30T03:40:31.644Z,-1.30
2023-01-30T03:42:59.407Z,-1.30
2023-01-30T03:45:27.317Z,-1.30
2023-01-30T03:47:55.099Z,-1.40
2023-01-30T03:50:22.965Z,-1.40
2023-01-30T03:52:52.103Z,-1.30
2023-01-30T03:55:20.217Z,-1.30
2023-01-30T03:57:48.181Z,-1.30
2023-01-30T04:00:16.937Z,-1.30
2023-01-30T04:02:44.880Z,-1.30
2023-01-30T04:05:12.816Z,-1.30
2023-01-30T04:07:40.656Z,-1.30
2023-01-30T04:10:11.085Z,-1.30
2023-01-30T04:12:38.900Z,-1.30
2023-01-30T04:15:07.737Z,-1.30
2023-01-30T04:17:35.521Z,-1.30
2023-01-30T04:20:03.541Z,-1.30
2023-01-30T04:22:31.485Z,-1.30
2023-01-30T04:24:59.315Z,-1.30
2023-01-30T04:27:28.402Z,-1.30
2023-01-30T04:29:56.313Z,-1.20
2023-01-30T04:32:24.269Z,-1.20
2023-01-30T04:34:52.230Z,-1.30
2023-01-30T04:37:20.012Z,-1.20
2023-01-30T04:39:47.791Z,-1.20
2023-01-30T04:42:16.311Z,-1.30
2023-01-30T04:44:45.437Z,-1.30
2023-01-30T04:47:13.254Z,-1.30
2023-01-30T04:49:41.138Z,-1.30
2023-01-30T04:52:08.965Z,-1.40
2023-01-30T04:54:36.750Z,-1.30
2023-01-30T04:57:04.698Z,-1.40
2023-01-30T04:59:32.503Z,-1.40
2023-01-30T05:02:01.651Z,-1.40
2023-01-30T05:04:29.466Z,-1.40
2023-01-30T05:06:57.250Z,-1.40
2023-01-30T05:09:25.040Z,-1.40
2023-01-30T05:11:52.775Z,-1.40
2023-01-30T05:14:20.513Z,-1.40
2023-01-30T05:16:48.294Z,-1.40
2023-01-30T05:19:17.511Z,-1.40
2023-01-30T05:21:45.324Z,-1.40
2023-01-30T05:24:13.091Z,-1.40
2023-01-30T05:26:40.949Z,-1.40
2023-01-30T05:29:08.841Z,-1.40
2023-01-30T05:31:38.607Z,-1.40
2023-01-30T05:34:06.532Z,-1.50
2023-01-30T05:36:35.635Z,-1.40
2023-01-30T05:39:03.519Z,-1.40
2023-01-30T05:41:31.298Z,-1.50
2023-01-30T05:43:59.044Z,-1.50
2023-01-30T05:46:26.941Z,-1.50
2023-01-30T05:48:54.788Z,-1.60
2023-01-30T05:51:24.174Z,-1.40
2023-01-30T05:53:53.786Z,-1.40
2023-01-30T05:56:21.761Z,-1.40
2023-01-30T05:58:53.132Z,-1.50
2023-01-30T06:01:21.408Z,-1.40
2023-01-30T06:03:49.632Z,-1.40
2023-01-30T06:06:17.794Z,-1.50
2023-01-30T06:08:45.793Z,-1.50
2023-01-30T06:11:16.484Z,-1.40
2023-01-30T06:13:44.834Z,-1.40
2023-01-30T06:16:14.454Z,-1.40
2023-01-30T06:18:42.827Z,-1.40
2023-01-30T06:21:11.059Z,-1.40
2023-01-30T06:23:38.962Z,-1.40
2023-01-30T06:26:09.152Z,-1.40
2023-01-30T06:28:39.046Z,-1.50
2023-01-30T06:31:08.502Z,-1.50
2023-01-30T06:33:36.754Z,-1.50
2023-01-30T06:36:05.046Z,-1.50
2023-01-30T06:38:32.864Z,-1.50
2023-01-30T06:41:00.640Z,-1.60
2023-01-30T06:43:28.691Z,-1.50
2023-01-30T06:45:59.949Z,-1.50
2023-01-30T06:48:27.929Z,-1.40
2023-01-30T06:50:55.747Z,-1.40
2023-01-30T06:53:30.005Z,-1.40
2023-01-30T06:55:57.975Z,-1.30
2023-01-30T06:58:25.815Z,-1.30
2023-01-30T07:00:53.787Z,-1.30
2023-01-30T07:03:22.951Z,-1.30
2023-01-30T07:05:50.871Z,-1.20
2023-01-30T07:08:18.788Z,-1.20
2023-01-30T07:10:46.821Z,-1.10
2023-01-30T07:13:14.564Z,-1.10
2023-01-30T07:15:42.349Z,-1.20
2023-01-30T07:18:10.276Z,-1.10
2023-01-30T07:20:40.088Z,-1.10
2023-01-30T07:23:07.841Z,-1.10
2023-01-30T07:25:35.645Z,-1.10
2023-01-30T07:28:03.989Z,-1.10
2023-01-30T07:30:33.661Z,-1.10
2023-01-30T07:33:01.849Z,-1.10
2023-01-30T07:35:31.295Z,-1.00
2023-01-30T07:38:00.594Z,-1.10
2023-01-30T07:40:28.571Z,-1.00
2023-01-30T07:43:00.881Z,-1.00
2023-01-30T07:45:31.979Z,-1.00
2023-01-30T07:47:59.803Z,-0.90
2023-01-30T07:50:27.587Z,-0.80
2023-01-30T07:52:55.416Z,-0.80
2023-01-30T07:55:24.657Z,-0.90
2023-01-30T07:57:52.406Z,-0.90
2023-01-30T08:00:21.228Z,-0.80
2023-01-30T08:02:49.152Z,-0.80
2023-01-30T08:05:17.283Z,-0.80
2023-01-30T08:07:45.119Z,-0.70
2023-01-30T08:10:13.179Z,-0.70
2023-01-30T08:12:42.441Z,-0.70
2023-01-30T08:15:10.993Z,-0.70
2023-01-30T08:17:39.274Z,-0.60
2023-01-30T08:20:08.122Z,-0.50
2023-01-30T08:22:35.918Z,-0.10
2023-01-30T08:25:03.884Z,-0.60
2023-01-30T08:27:31.842Z,-0.60
2023-01-30T08:30:00.921Z,-0.70
2023-01-30T08:32:28.714Z,-0.70
2023-01-30T08:34:56.489Z,-0.70
2023-01-30T08:37:24.510Z,-0.60
2023-01-30T08:39:52.270Z,-0.50
2023-01-30T08:42:20.209Z,0.10
2023-01-30T08:44:48.030Z,0.90
2023-01-30T08:47:17.316Z,1.80
2023-01-30T08:49:45.163Z,2.30
2023-01-30T08:52:12.970Z,1.70
2023-01-30T08:54:40.790Z,1.50
2023-01-30T08:57:08.594Z,1.40
2023-01-30T08:59:36.410Z,1.60
2023-01-30T09:02:04.200Z,0.90
2023-01-30T09:04:33.731Z,0.90
2023-01-30T09:07:01.486Z,1.00
2023-01-30T09:09:30.042Z,1.20
2023-01-30T09:11:57.881Z,1.50
2023-01-30T09:14:25.748Z,1.50
2023-01-30T09:16:55.631Z,1.50
2023-01-30T09:19:23.736Z,1.50
2023-01-30T09:21:53.609Z,1.70
2023-01-30T09:24:26.228Z,1.70
2023-01-30T09:26:54.472Z,1.90
2023-01-30T09:29:22.592Z,2.10
2023-01-30T09:31:50.611Z,2.40
2023-01-30T09:34:18.475Z,2.60
2023-01-30T09:36:46.265Z,2.20
2023-01-30T09:39:15.456Z,1.80
2023-01-30T09:42:09.830Z,1.40
2023-01-30T09:45:02.547Z,1.20
2023-01-30T09:47:41.305Z,1.00
2023-01-30T09:50:24.486Z,0.90
2023-01-30T09:52:58.649Z,0.90
2023-01-30T09:55:29.575Z,1.00
2023-01-30T09:57:59.702Z,0.90
2023-01-30T10:00:33.224Z,1.10
2023-01-30T10:03:07.143Z,1.40
2023-01-30T10:05:41.502Z,1.70
2023-01-30T10:08:43.337Z,1.80
2023-01-30T10:11:22.177Z,1.90
2023-01-30T10:14:05.765Z,2.10
2023-01-30T10:16:39.189Z,2.40
2023-01-30T10:19:44.211Z,2.50
2023-01-30T10:22:22.549Z,2.60
2023-01-30T10:25:04.026Z,2.80
2023-01-30T10:27:34.264Z,2.70
2023-01-30T10:30:06.082Z,2.90
2023-01-30T10:32:42.557Z,3.00
2023-01-30T10:35:17.869Z,3.30
2023-01-30T10:37:51.501Z,3.40
2023-01-30T10:40:24.128Z,3.50
2023-01-30T10:43:00.710Z,4.00
2023-01-30T10:45:36.670Z,3.90
2023-01-30T10:48:42.133Z,3.30
2023-01-30T10:51:23.353Z,2.70
2023-01-30T10:53:56.241Z,2.60
2023-01-30T10:56:32.652Z,2.50
2023-01-30T10:59:12.157Z,2.60
2023-01-30T11:01:45.798Z,2.50
2023-01-30T11:04:22.302Z,2.30
2023-01-30T11:06:50.448Z,2.20
2023-01-30T11:09:18.207Z,2.10
2023-01-30T11:11:50.429Z,2.10
2023-01-30T11:14:19.843Z,2.10
2023-01-30T11:16:49.632Z,2.00
2023-01-30T11:19:21.611Z,1.90
2023-01-30T11:21:51.750Z,1.90
2023-01-30T11:24:21.433Z,2.00
2023-01-30T11:26:49.925Z,1.90
2023-01-30T11:29:30.663Z,2.00
2023-01-30T11:32:03.850Z,2.00
2023-01-30T11:34:31.806Z,2.00
2023-01-30T11:37:15.176Z,2.20
2023-01-30T11:39:51.377Z,2.30
2023-01-30T11:42:21.229Z,2.20
2023-01-30T11:45:06.594Z,2.40
2023-01-30T11:47:57.603Z,2.40
2023-01-30T11:51:32.097Z,2.30
2023-01-30T11:53:31.905Z,2.30
2023-01-30T11:56:08.555Z,2.20
2023-01-30T11:58:40.392Z,2.10
2023-01-30T12:01:11.640Z,2.10
2023-01-30T12:03:48.274Z,2.10
2023-01-30T12:06:23.350Z,2.00
2023-01-30T12:08:54.680Z,2.10
2023-01-30T12:11:31.807Z,2.00
2023-01-30T12:14:15.754Z,2.10
2023-01-30T12:16:54.904Z,2.10
2023-01-30T12:19:34.911Z,2.10
2023-01-30T12:22:11.067Z,2.00
2023-01-30T12:24:44.422Z,2.10
2023-01-30T12:27:20.187Z,2.10
2023-01-30T12:30:00.199Z,2.10
2023-01-30T12:32:32.760Z,2.20
2023-01-30T12:35:00.670Z,2.20
2023-01-30T12:37:49.490Z,2.20
2023-01-30T12:40:32.958Z,2.10
2023-01-30T12:43:35.597Z,2.10
2023-01-30T12:46:16.091Z,2.20
2023-01-30T12:49:12.171Z,2.10
2023-01-30T12:51:58.455Z,2.20
2023-01-30T12:54:42.038Z,2.20
2023-01-30T12:57:19.462Z,2.70
2023-01-30T12:59:58.112Z,2.90
2023-01-30T13:02:49.932Z,2.90
2023-01-30T13:05:29.832Z,3.10
2023-01-30T13:08:33.397Z,3.10
2023-01-30T13:11:11.329Z,3.20
2023-01-30T13:13:44.783Z,3.20
2023-01-30T13:16:19.553Z,3.20
2023-01-30T13:18:53.608Z,3.20
2023-01-30T13:21:29.878Z,3.20
2023-01-30T13:24:11.392Z,3.10
2023-01-30T13:26:42.602Z,3.10
2023-01-30T13:29:15.639Z,3.20
2023-01-30T13:31:51.709Z,3.10
2023-01-30T13:34:34.127Z,3.10
2023-01-30T13:37:08.182Z,3.10
2023-01-30T13:39:42.634Z,3.10
2023-01-30T13:42:16.454Z,3.10
2023-01-30T13:44:45.644Z,3.10
2023-01-30T13:47:28.830Z,3.10
2023-01-30T13:50:08.324Z,3.20
2023-01-30T13:52:44.872Z,3.20
2023-01-30T13:55:21.960Z,3.00
2023-01-30T13:57:55.989Z,3.10
2023-01-30T14:00:29.787Z,3.20
2023-01-30T14:03:22.937Z,3.20
2023-01-30T14:06:10.571Z,3.10
2023-01-30T14:08:49.567Z,3.10
2023-01-30T14:11:34.372Z,3.10
2023-01-30T14:14:06.287Z,3.20
2023-01-30T14:16:45.717Z,3.10
2023-01-30T14:19:33.312Z,3.10
2023-01-30T14:22:04.765Z,3.10
2023-01-30T14:24:33.931Z,3.10
2023-01-30T14:27:04.704Z,3.10
2023-01-30T14:29:51.677Z,3.10
2023-01-30T14:32:38.736Z,3.10
2023-01-30T14:35:27.951Z,3.10
2023-01-30T14:38:14.555Z,3.00
2023-01-30T14:41:06.699Z,3.00
2023-01-30T14:43:39.793Z,3.00
2023-01-30T14:46:14.001Z,3.00
2023-01-30T14:48:45.020Z,3.00
2023-01-30T14:51:24.889Z,2.90
2023-01-30T14:53:55.744Z,3.00
2023-01-30T14:56:40.138Z,3.00
2023-01-30T14:59:18.976Z,3.00
2023-01-30T15:01:59.800Z,3.00
2023-01-30T15:04:30.707Z,3.00
2023-01-30T15:07:01.061Z,3.00
2023-01-30T15:09:31.225Z,2.90
2023-01-30T15:12:16.583Z,3.00
2023-01-30T15:14:56.217Z,3.00
2023-01-30T15:17:29.855Z,2.90
2023-01-30T15:20:14.920Z,2.80
2023-01-30T15:22:55.849Z,3.00
2023-01-30T15:25:34.313Z,2.90
2023-01-30T15:28:15.797Z,2.90
2023-01-30T15:31:05.309Z,2.90
2023-01-30T15:33:33.147Z,3.00
2023-01-30T15:36:01.416Z,2.90
2023-01-30T15:38:31.526Z,2.90
2023-01-30T15:41:02.397Z,2.90
2023-01-30T15:43:54.380Z,2.80
2023-01-30T15:46:32.879Z,2.80
2023-01-30T15:49:14.795Z,2.90
2023-01-30T15:51:42.831Z,2.90
2023-01-30T15:54:12.980Z,2.80
2023-01-30T15:56:41.675Z,2.80
2023-01-30T15:59:30.290Z,2.80
2023-01-30T16:02:03.800Z,2.80
2023-01-30T16:04:32.015Z,2.80
2023-01-30T16:06:59.863Z,2.70
2023-01-30T16:09:27.722Z,2.80
2023-01-30T16:11:56.101Z,2.80
2023-01-30T16:14:25.367Z,2.80
2023-01-30T16:16:57.542Z,2.60
2023-01-30T16:19:29.399Z,2.60
2023-01-30T16:22:01.715Z,2.50
2023-01-30T16:24:32.583Z,2.50
2023-01-30T16:27:03.360Z,2.50
2023-01-30T16:29:35.610Z,2.50
2023-01-30T16:32:12.429Z,2.40
2023-01-30T16:34:41.038Z,2.40
2023-01-30T16:37:26.919Z,2.40
2023-01-30T16:40:10.381Z,2.40
2023-01-30T16:42:38.367Z,2.40
2023-01-30T16:46:02.963Z,2.40
2023-01-30T16:48:37.081Z,2.40
2023-01-30T16:51:19.024Z,2.30
2023-01-30T16:53:53.798Z,2.40
2023-01-30T16:56:21.783Z,2.40
2023-01-30T16:58:53.426Z,2.30
2023-01-30T17:01:24.016Z,2.40
2023-01-30T17:04:01.242Z,2.40
2023-01-30T17:06:35.776Z,2.40
2023-01-30T17:09:06.038Z,2.30
2023-01-30T17:11:36.472Z,2.20
2023-01-30T17:14:22.250Z,2.20
2023-01-30T17:17:03.892Z,2.20
2023-01-30T17:19:31.795Z,2.20
2023-01-30T17:22:01.076Z,2.20
2023-01-30T17:24:29.738Z,2.20
2023-01-30T17:26:59.679Z,2.30
2023-01-30T17:29:41.941Z,2.20
2023-01-30T17:32:14.236Z,1.90
2023-01-30T17:34:42.106Z,2.00
2023-01-30T17:37:14.913Z,2.10
2023-01-30T17:39:42.684Z,2.20
2023-01-30T17:42:11.051Z,2.20
2023-01-30T17:44:38.804Z,2.20
2023-01-30T17:47:06.739Z,2.20
2023-01-30T17:49:35.881Z,2.20
2023-01-30T17:52:03.640Z,2.30
2023-01-30T17:54:31.370Z,2.20
2023-01-30T17:57:02.470Z,2.20
2023-01-30T17:59:31.075Z,2.20
2023-01-30T18:01:59.318Z,2.20
2023-01-30T18:04:27.153Z,2.20
2023-01-30T18:07:02.058Z,2.20
2023-01-30T18:09:29.838Z,2.20
2023-01-30T18:11:57.798Z,2.20
2023-01-30T18:14:25.594Z,2.20
2023-01-30T18:16:55.774Z,2.10
2023-01-30T18:19:24.334Z,2.10
2023-01-30T18:21:52.319Z,2.10
2023-01-30T18:24:21.647Z,2.10
2023-01-30T18:26:49.410Z,2.10
2023-01-30T18:29:17.348Z,2.10
2023-01-30T18:31:45.254Z,2.10
2023-01-30T18:34:13.135Z,2.10
2023-01-30T18:36:40.962Z,2.10
2023-01-30T18:39:09.154Z,2.10
2023-01-30T18:41:38.432Z,2.10
2023-01-30T18:44:07.705Z,2.20
2023-01-30T18:46:35.494Z,2.20
2023-01-30T18:49:03.423Z,2.10
2023-01-30T18:51:34.152Z,2.10
2023-01-30T18:54:02.465Z,2.20
2023-01-30T18:56:31.797Z,2.20
2023-01-30T18:59:03.874Z,2.10
2023-01-30T19:01:35.418Z,2.10
2023-01-30T19:04:05.857Z,2.20
2023-01-30T19:06:36.510Z,2.20
2023-01-30T19:09:04.761Z,2.20
2023-01-30T19:11:50.056Z,2.20
2023-01-30T19:14:19.205Z,2.10
2023-01-30T19:16:46.960Z,2.20
2023-01-30T19:19:14.788Z,2.10
2023-01-30T19:21:42.531Z,2.10
2023-01-30T19:24:15.314Z,2.20
2023-01-30T19:26:43.559Z,2.20
2023-01-30T19:29:11.592Z,2.20
2023-01-30T19:31:41.496Z,2.10
2023-01-30T19:34:09.841Z,2.10
2023-01-30T19:36:37.910Z,2.10
2023-01-30T19:39:06.823Z,2.10
2023-01-30T19:41:36.470Z,2.10
2023-01-30T19:44:06.445Z,2.10
2023-01-30T19:46:34.422Z,2.00
2023-01-30T19:49:03.844Z,2.10
2023-01-30T19:51:33.161Z,2.10
2023-01-30T19:54:02.849Z,2.10
2023-01-30T19:56:32.697Z,2.10
2023-01-30T19:59:02.301Z,2.10
2023-01-30T20:01:32.803Z,2.10
2023-01-30T20:04:03.681Z,2.10
2023-01-30T20:06:33.181Z,2.10
2023-01-30T20:09:02.954Z,2.10
2023-01-30T20:11:31.250Z,2.10
2023-01-30T20:14:01.222Z,2.10
2023-01-30T20:16:31.155Z,2.10
2023-01-30T20:19:00.384Z,2.10
2023-01-30T20:21:31.294Z,2.10
2023-01-30T20:23:59.916Z,2.10
2023-01-30T20:26:30.417Z,2.10
2023-01-30T20:28:59.016Z,2.10
2023-01-30T20:31:28.774Z,2.10
2023-01-30T20:33:57.653Z,2.00
2023-01-30T20:36:27.032Z,2.10
2023-01-30T20:38:57.075Z,2.00
2023-01-30T20:41:26.561Z,2.10
2023-01-30T20:43:57.223Z,2.10
2023-01-30T20:46:27.548Z,2.00
2023-01-30T20:48:56.847Z,2.10
2023-01-30T20:51:26.701Z,2.10
2023-01-30T20:53:57.825Z,2.10
2023-01-30T20:56:27.548Z,2.10
2023-01-30T20:58:55.321Z,2.10
2023-01-30T21:01:24.990Z,2.10
2023-01-30T21:03:54.422Z,2.10
2023-01-30T21:06:41.859Z,2.10
2023-01-30T21:09:15.193Z,2.10
2023-01-30T21:11:43.211Z,2.00
2023-01-30T21:14:11.239Z,2.00
2023-01-30T21:16:39.556Z,2.10
2023-01-30T21:19:09.461Z,2.00
2023-01-30T21:21:40.765Z,2.00
2023-01-30T21:24:12.953Z,2.00
2023-01-30T21:26:45.939Z,2.00
2023-01-30T21:29:15.347Z,2.00
2023-01-30T21:31:43.570Z,2.00
2023-01-30T21:34:11.762Z,2.00
2023-01-30T21:36:40.337Z,2.00
2023-01-30T21:39:25.890Z,2.00
2023-01-30T21:42:12.850Z,2.00
2023-01-30T21:44:40.875Z,1.90
2023-01-30T21:47:09.230Z,2.00
2023-01-30T21:49:37.078Z,2.00
2023-01-30T21:52:05.246Z,1.90
2023-01-30T21:54:32.998Z,1.90
2023-01-30T21:57:02.366Z,1.90
2023-01-30T21:59:31.418Z,1.90
2023-01-30T22:01:59.168Z,1.90
2023-01-30T22:04:26.932Z,1.90
2023-01-30T22:06:54.672Z,1.90
2023-01-30T22:09:22.500Z,1.90
2023-01-30T22:11:51.035Z,1.90
2023-01-30T22:14:20.164Z,1.90
2023-01-30T22:16:47.967Z,1.90
2023-01-30T22:19:15.764Z,1.90
2023-01-30T22:21:43.512Z,1.90
2023-01-30T22:24:12.101Z,1.90
2023-01-30T22:26:39.941Z,1.80
2023-01-30T22:29:08.144Z,1.80
2023-01-30T22:31:40.373Z,1.90
2023-01-30T22:34:08.847Z,1.90
2023-01-30T22:36:37.469Z,1.90
2023-01-30T22:39:06.212Z,1.80
2023-01-30T22:41:36.216Z,1.90
2023-01-30T22:44:06.385Z,1.80
2023-01-30T22:46:36.414Z,1.90
2023-01-30T22:49:07.876Z,1.80
2023-01-30T22:51:37.167Z,1.80
2023-01-30T22:54:07.332Z,1.80
2023-01-30T22:56:38.440Z,1.80
2023-01-30T23:01:43.415Z,1.80
2023-01-30T23:04:14.809Z,1.80
2023-01-30T23:06:43.551Z,1.80
2023-01-30T23:09:15.280Z,1.80
2023-01-30T23:11:44.571Z,1.80
2023-01-30T23:14:17.992Z,1.70
2023-01-30T23:16:46.405Z,1.80
2023-01-30T23:19:14.599Z,1.70
2023-01-30T23:21:45.446Z,1.80
2023-01-30T23:24:15.332Z,1.80
2023-01-30T23:26:45.216Z,1.80
2023-01-30T23:29:15.537Z,1.80
2023-01-30T23:31:45.272Z,1.80
2023-01-30T23:34:17.068Z,1.80
2023-01-30T23:36:45.412Z,1.80
2023-01-30T23:39:14.465Z,1.80
2023-01-30T23:41:44.136Z,1.80
2023-01-30T23:44:12.112Z,1.80
2023-01-30T23:46:41.856Z,1.80
2023-01-30T23:49:12.498Z,1.80
2023-01-30T23:51:44.055Z,1.80
2023-01-30T23:54:13.328Z,1.80
2023-01-30T23:56:43.762Z,1.80
2023-01-30T23:59:12.175Z,1.80
